createdAt,value
2022-08-09T00:02:08.456Z,27.52
2022-08-09T00:05:02.947Z,27.52
2022-08-09T00:08:01.499Z,27.53
2022-08-09T00:10:47.422Z,27.55
2022-08-09T00:13:33.307Z,27.53
2022-08-09T00:16:26.050Z,27.52
2022-08-09T00:19:12.692Z,27.50
2022-08-09T00:21:58.459Z,27.47
2022-08-09T00:24:44.860Z,27.46
2022-08-09T00:27:36.221Z,27.43
2022-08-09T00:30:28.737Z,27.38
2022-08-09T00:33:14.569Z,27.38
2022-08-09T00:36:01.023Z,27.35
2022-08-09T00:38:51.206Z,27.33
2022-08-09T00:44:10.556Z,27.30
2022-08-09T00:44:44.014Z,27.29
2022-08-09T00:47:35.963Z,27.24
2022-08-09T00:50:26.261Z,27.24
2022-08-09T00:53:14.680Z,27.22
2022-08-09T00:56:05.690Z,27.14
2022-08-09T00:58:55.978Z,27.16
2022-08-09T01:01:45.315Z,27.19
2022-08-09T01:05:57.117Z,27.11
2022-08-09T01:08:55.863Z,27.08
2022-08-09T01:12:42.598Z,27.02
2022-08-09T01:15:31.608Z,27.01
2022-08-09T01:18:30.459Z,27.00
2022-08-09T01:21:19.782Z,26.99
2022-08-09T01:24:39.127Z,26.94
2022-08-09T01:27:25.099Z,26.94
2022-08-09T01:30:28.551Z,26.94
2022-08-09T01:33:18.523Z,26.92
2022-08-09T01:36:07.840Z,26.99
2022-08-09T01:38:54.141Z,26.97
2022-08-09T01:41:55.598Z,26.99
2022-08-09T01:44:48.740Z,27.02
2022-08-09T01:47:44.502Z,27.02
2022-08-09T01:50:37.243Z,26.96
2022-08-09T01:53:29.328Z,26.94
2022-08-09T01:56:29.273Z,26.90
2022-08-09T01:59:18.710Z,26.91
2022-08-09T02:02:05.926Z,26.89
2022-08-09T02:04:52.425Z,26.86
2022-08-09T02:08:38.748Z,26.88
2022-08-09T02:10:51.872Z,26.87
2022-08-09T02:13:40.581Z,26.87
2022-08-09T02:16:33.622Z,26.83
2022-08-09T02:19:39.184Z,26.84
2022-08-09T02:22:35.921Z,26.83
2022-08-09T02:25:25.713Z,26.82
2022-08-09T02:28:17.859Z,26.79
2022-08-09T02:31:08.061Z,26.74
2022-08-09T02:34:07.393Z,26.76
2022-08-09T02:37:02.196Z,26.74
2022-08-09T02:40:01.518Z,26.68
2022-08-09T02:42:51.583Z,26.71
2022-08-09T02:45:42.782Z,26.69
2022-08-09T02:48:31.757Z,26.68
2022-08-09T02:51:18.669Z,26.65
2022-08-09T02:54:06.822Z,26.65
2022-08-09T02:56:57.146Z,26.66
2022-08-09T03:00:11.460Z,26.66
2022-08-09T03:02:59.690Z,26.64
2022-08-09T03:05:47.061Z,26.61
2022-08-09T03:08:34.160Z,26.61
2022-08-09T03:11:29.917Z,26.60
2022-08-09T03:14:31.978Z,26.59
2022-08-09T03:17:20.402Z,26.54
2022-08-09T03:20:11.162Z,26.55
2022-08-09T03:23:13.731Z,26.54
2022-08-09T03:26:04.754Z,26.51
2022-08-09T03:28:55.334Z,26.44
2022-08-09T03:31:42.768Z,26.42
2022-08-09T03:34:48.211Z,26.38
2022-08-09T03:37:55.317Z,26.33
2022-08-09T03:40:43.978Z,26.23
2022-08-09T03:43:31.581Z,26.28
2022-08-09T03:46:27.283Z,26.28
2022-08-09T03:49:19.134Z,26.28
2022-08-09T03:52:07.457Z,26.29
2022-08-09T03:54:54.507Z,26.25
2022-08-09T03:57:44.682Z,26.23
2022-08-09T04:00:42.132Z,26.24
2022-08-09T04:03:45.922Z,26.26
2022-08-09T04:06:36.539Z,26.23
2022-08-09T04:09:47.636Z,26.23
2022-08-09T04:12:50.857Z,26.23
2022-08-09T04:16:17.155Z,26.21
2022-08-09T04:18:44.123Z,26.20
2022-08-09T04:21:31.578Z,26.19
2022-08-09T04:24:26.973Z,26.15
2022-08-09T04:27:12.915Z,26.16
2022-08-09T04:30:00.823Z,26.13
2022-08-09T04:32:48.148Z,26.16
2022-08-09T04:35:34.005Z,26.18
2022-08-09T04:38:20.203Z,26.17
2022-08-09T04:41:07.048Z,26.16
2022-08-09T04:44:06.289Z,26.18
2022-08-09T04:46:58.786Z,26.22
2022-08-09T04:49:54.384Z,26.20
2022-08-09T04:52:42.199Z,26.25
2022-08-09T04:55:32.400Z,26.27
2022-08-09T04:58:27.977Z,26.29
2022-08-09T05:01:16.346Z,26.30
2022-08-09T05:04:04.921Z,26.33
2022-08-09T05:06:51.321Z,26.35
2022-08-09T05:09:42.115Z,26.36
2022-08-09T05:12:32.972Z,26.36
2022-08-09T05:15:38.560Z,26.38
2022-08-09T05:18:38.563Z,26.37
2022-08-09T05:21:47.037Z,26.39
2022-08-09T05:24:41.623Z,26.38
2022-08-09T05:27:27.695Z,26.37
2022-08-09T05:30:19.380Z,26.38
2022-08-09T05:33:05.669Z,26.37
2022-08-09T05:35:57.233Z,26.39
2022-08-09T05:38:43.248Z,26.41
2022-08-09T05:41:48.421Z,26.41
2022-08-09T05:44:36.831Z,26.40
2022-08-09T05:47:30.336Z,26.39
2022-08-09T05:50:29.895Z,26.39
2022-08-09T05:53:32.085Z,26.40
2022-08-09T05:56:30.463Z,26.40
2022-08-09T05:59:16.219Z,26.38
2022-08-09T06:02:02.468Z,26.38
2022-08-09T06:04:48.563Z,26.41
2022-08-09T06:07:35.364Z,26.42
2022-08-09T06:10:21.454Z,26.42
2022-08-09T06:13:18.254Z,26.43
2022-08-09T06:16:11.023Z,26.45
2022-08-09T06:18:59.825Z,26.44
2022-08-09T06:21:51.455Z,26.33
2022-08-09T06:24:44.845Z,26.35
2022-08-09T06:27:42.981Z,26.39
2022-08-09T06:30:38.067Z,26.51
2022-08-09T06:33:40.956Z,26.47
2022-08-09T06:36:32.864Z,26.40
2022-08-09T06:39:19.214Z,26.51
2022-08-09T06:42:08.941Z,26.52
2022-08-09T06:44:58.844Z,26.56
2022-08-09T06:47:45.354Z,26.60
2022-08-09T06:50:31.928Z,26.68
2022-08-09T06:53:18.106Z,26.70
2022-08-09T06:56:07.877Z,26.82
2022-08-09T07:00:54.166Z,26.84
2022-08-09T07:02:11.005Z,26.84
2022-08-09T07:04:57.334Z,26.86
2022-08-09T07:08:00.986Z,26.84
2022-08-09T07:10:48.548Z,26.84
2022-08-09T07:13:44.986Z,26.80
2022-08-09T07:16:49.060Z,26.83
2022-08-09T07:19:57.369Z,26.83
2022-08-09T07:22:50.981Z,26.84
2022-08-09T07:25:43.406Z,26.89
2022-08-09T07:28:30.972Z,26.88
2022-08-09T07:31:24.089Z,26.87
2022-08-09T07:34:32.615Z,26.90
2022-08-09T07:37:19.667Z,26.94
2022-08-09T07:40:08.859Z,26.95
2022-08-09T07:43:00.445Z,26.97
2022-08-09T07:45:48.319Z,26.99
2022-08-09T07:48:39.391Z,27.01
2022-08-09T07:52:04.715Z,27.06
2022-08-09T07:54:31.830Z,27.11
2022-08-09T07:57:18.030Z,27.09
2022-08-09T08:00:08.912Z,27.14
2022-08-09T08:03:13.746Z,27.22
2022-08-09T08:05:59.692Z,27.26
2022-08-09T08:09:03.625Z,27.26
2022-08-09T08:12:28.288Z,27.35
2022-08-09T08:15:37.566Z,27.34
2022-08-09T08:18:55.615Z,27.35
2022-08-09T08:21:41.481Z,27.40
2022-08-09T08:24:49.008Z,27.40
2022-08-09T08:27:40.399Z,27.47
2022-08-09T08:30:27.295Z,27.48
2022-08-09T08:33:24.409Z,27.56
2022-08-09T08:36:10.765Z,27.58
2022-08-09T08:38:56.813Z,27.65
2022-08-09T08:41:51.852Z,27.66
2022-08-09T08:44:42.475Z,27.72
2022-08-09T08:47:31.857Z,27.76
2022-08-09T08:50:27.808Z,27.79
2022-08-09T08:53:16.124Z,27.82
2022-08-09T08:56:16.871Z,27.91
2022-08-09T08:59:19.427Z,27.97
2022-08-09T09:02:08.632Z,28.00
2022-08-09T09:05:06.209Z,28.08
2022-08-09T09:08:03.728Z,28.12
2022-08-09T09:10:49.804Z,28.16
2022-08-09T09:13:54.761Z,28.22
2022-08-09T09:16:47.241Z,28.22
2022-08-09T09:20:10.841Z,28.29
2022-08-09T09:23:02.065Z,28.36
2022-08-09T09:26:05.035Z,28.38
2022-08-09T09:29:04.177Z,28.46
2022-08-09T09:32:15.411Z,28.52
2022-08-09T09:35:09.940Z,28.55
2022-08-09T09:37:55.801Z,28.57
2022-08-09T09:40:46.288Z,28.62
2022-08-09T09:44:10.888Z,28.64
2022-08-09T09:46:50.773Z,28.68
2022-08-09T09:50:13.492Z,28.76
2022-08-09T09:52:56.390Z,28.77
2022-08-09T09:56:04.227Z,28.81
2022-08-09T09:58:53.514Z,28.80
2022-08-09T10:01:43.280Z,28.86
2022-08-09T10:04:30.969Z,28.88
2022-08-09T10:07:27.616Z,28.83
2022-08-09T10:10:31.517Z,28.87
2022-08-09T10:13:23.112Z,28.87
2022-08-09T10:16:58.072Z,28.84
2022-08-09T10:19:53.042Z,28.82
2022-08-09T10:22:43.769Z,28.87
2022-08-09T10:25:34.822Z,28.84
2022-08-09T10:28:41.343Z,28.87
2022-08-09T10:34:35.825Z,28.87
2022-08-09T10:37:22.350Z,28.89
2022-08-09T10:40:12.244Z,28.90
2022-08-09T10:43:16.258Z,29.00
2022-08-09T10:46:26.746Z,29.00
2022-08-09T10:49:51.849Z,28.93
2022-08-09T10:53:10.726Z,28.85
2022-08-09T10:56:23.015Z,28.74
2022-08-09T10:59:31.205Z,28.74
2022-08-09T11:03:07.426Z,28.72
2022-08-09T11:06:26.099Z,28.71
2022-08-09T11:09:15.779Z,28.75
2022-08-09T11:12:17.054Z,28.74
2022-08-09T11:15:19.259Z,28.73
2022-08-09T11:18:05.313Z,28.73
2022-08-09T11:20:52.901Z,28.71
2022-08-09T11:24:01.793Z,28.72
2022-08-09T11:26:54.966Z,28.71
2022-08-09T11:30:00.716Z,28.72
2022-08-09T11:33:20.501Z,28.74
2022-08-09T11:36:08.576Z,28.77
2022-08-09T11:39:02.750Z,28.84
2022-08-09T11:41:49.739Z,28.90
2022-08-09T11:44:48.492Z,28.98
2022-08-09T11:47:47.869Z,29.15
2022-08-09T11:52:49.523Z,29.28
2022-08-09T11:54:33.240Z,29.46
2022-08-09T11:57:59.849Z,29.59
2022-08-09T12:01:03.072Z,29.72
2022-08-09T12:04:03.056Z,29.86
2022-08-09T12:06:56.632Z,29.97
2022-08-09T12:09:51.080Z,30.04
2022-08-09T12:12:52.899Z,30.11
2022-08-09T12:15:48.566Z,30.14
2022-08-09T12:18:38.978Z,30.14
2022-08-09T12:21:32.521Z,30.19
2022-08-09T12:24:25.293Z,30.21
2022-08-09T12:29:12.074Z,30.21
2022-08-09T12:30:38.827Z,30.22
2022-08-09T12:33:35.439Z,30.21
2022-08-09T12:36:34.091Z,30.13
2022-08-09T12:39:22.644Z,30.04
2022-08-09T12:42:16.386Z,29.94
2022-08-09T12:45:07.017Z,29.96
2022-08-09T12:48:27.827Z,30.10
2022-08-09T12:51:30.377Z,30.28
2022-08-09T12:54:26.286Z,30.48
2022-08-09T12:57:12.265Z,30.63
2022-08-09T13:00:18.398Z,30.72
2022-08-09T13:03:06.446Z,30.91
2022-08-09T13:06:14.286Z,31.21
2022-08-09T13:09:06.577Z,31.58
2022-08-09T13:12:01.835Z,31.89
2022-08-09T13:14:53.742Z,32.26
2022-08-09T13:18:02.436Z,32.60
2022-08-09T13:21:20.439Z,32.99
2022-08-09T13:24:42.151Z,33.14
2022-08-09T13:27:39.431Z,33.21
2022-08-09T13:30:50.969Z,33.55
2022-08-09T13:33:52.201Z,34.13
2022-08-09T13:36:43.175Z,34.66
2022-08-09T13:41:19.428Z,35.09
2022-08-09T13:42:36.434Z,35.49
2022-08-09T13:45:22.351Z,35.98
2022-08-09T13:48:19.240Z,36.38
2022-08-09T13:51:05.514Z,36.78
2022-08-09T13:53:55.524Z,36.89
2022-08-09T13:56:41.921Z,36.94
2022-08-09T13:59:41.839Z,36.92
2022-08-09T14:02:28.505Z,36.91
2022-08-09T14:05:59.859Z,37.01
2022-08-09T14:08:21.619Z,37.17
2022-08-09T14:11:09.962Z,37.35
2022-08-09T14:14:23.075Z,37.62
2022-08-09T14:17:09.136Z,37.87
2022-08-09T14:20:00.580Z,38.08
2022-08-09T14:22:49.840Z,38.24
2022-08-09T14:25:42.915Z,38.12
2022-08-09T14:28:29.284Z,38.06
2022-08-09T14:31:17.815Z,38.20
2022-08-09T14:34:09.817Z,38.39
2022-08-09T14:36:56.001Z,38.18
2022-08-09T14:39:47.987Z,37.75
2022-08-09T14:42:34.632Z,37.43
2022-08-09T14:46:58.275Z,37.29
2022-08-09T14:48:26.935Z,37.31
2022-08-09T14:51:13.271Z,37.04
2022-08-09T14:53:59.711Z,36.64
2022-08-09T14:56:58.289Z,36.16
2022-08-09T14:59:48.534Z,35.63
2022-08-09T15:02:34.927Z,35.17
2022-08-09T15:05:21.529Z,34.79
2022-08-09T15:08:10.252Z,34.49
2022-08-09T15:11:00.542Z,34.20
2022-08-09T15:14:01.501Z,33.87
2022-08-09T15:16:57.157Z,33.59
2022-08-09T15:19:59.647Z,33.30
2022-08-09T15:22:48.837Z,33.08
2022-08-09T15:25:55.682Z,32.98
2022-08-09T15:28:42.149Z,32.89
2022-08-09T15:31:42.004Z,32.84
2022-08-09T15:34:34.595Z,32.69
2022-08-09T15:38:04.005Z,33.05
2022-08-09T15:40:44.195Z,33.91
2022-08-09T15:43:37.177Z,34.46
2022-08-09T15:46:32.565Z,34.55
2022-08-09T15:49:22.501Z,34.52
2022-08-09T15:52:09.478Z,34.42
2022-08-09T15:54:58.287Z,34.27
2022-08-09T15:57:51.151Z,34.08
2022-08-09T16:00:37.748Z,33.78
2022-08-09T16:03:29.718Z,33.51
2022-08-09T16:06:34.999Z,33.19
2022-08-09T16:09:51.611Z,33.00
2022-08-09T16:12:31.069Z,32.74
2022-08-09T16:16:04.504Z,32.58
2022-08-09T16:18:23.608Z,32.39
2022-08-09T16:21:09.730Z,32.26
2022-08-09T16:23:58.698Z,32.14
2022-08-09T16:26:48.983Z,32.03
2022-08-09T16:29:36.913Z,31.93
2022-08-09T16:32:49.757Z,31.84
2022-08-09T16:35:56.035Z,31.74
2022-08-09T16:38:45.004Z,31.63
2022-08-09T16:42:02.304Z,31.55
2022-08-09T16:44:43.398Z,31.47
2022-08-09T16:48:42.026Z,31.38
2022-08-09T16:50:38.479Z,31.28
2022-08-09T16:53:24.657Z,31.22
2022-08-09T16:56:18.662Z,31.15
2022-08-09T16:59:11.313Z,31.07
2022-08-09T17:01:57.945Z,31.00
2022-08-09T17:04:45.602Z,30.91
2022-08-09T17:08:43.455Z,30.83
2022-08-09T17:10:38.457Z,30.80
2022-08-09T17:13:24.439Z,30.75
2022-08-09T17:16:20.164Z,30.66
2022-08-09T17:19:06.569Z,30.60
2022-08-09T17:21:57.121Z,30.51
2022-08-09T17:24:47.707Z,30.41
2022-08-09T17:27:49.168Z,30.30
2022-08-09T17:30:39.983Z,30.17
2022-08-09T17:33:35.949Z,30.02
2022-08-09T17:36:24.582Z,29.90
2022-08-09T17:39:14.537Z,29.80
2022-08-09T17:42:01.355Z,29.67
2022-08-09T17:44:49.442Z,29.59
2022-08-09T17:47:49.700Z,29.47
2022-08-09T17:50:41.380Z,29.38
2022-08-09T17:53:42.834Z,29.29
2022-08-09T17:56:35.582Z,29.19
2022-08-09T17:59:22.234Z,29.13
2022-08-09T18:02:21.499Z,29.04
2022-08-09T18:05:13.064Z,28.93
2022-08-09T18:07:59.295Z,28.89
2022-08-09T18:10:46.251Z,28.79
2022-08-09T18:14:00.475Z,28.75
2022-08-09T18:16:53.076Z,28.59
2022-08-09T18:20:56.207Z,28.55
2022-08-09T18:22:51.201Z,28.41
2022-08-09T18:25:50.389Z,28.35
2022-08-09T18:30:42.019Z,28.24
2022-08-09T18:31:55.815Z,28.10
2022-08-09T18:34:43.566Z,27.94
2022-08-09T18:37:48.785Z,27.85
2022-08-09T18:40:35.802Z,27.70
2022-08-09T18:43:23.610Z,27.59
2022-08-09T18:46:47.134Z,27.53
2022-08-09T18:49:15.732Z,27.48
2022-08-09T18:52:04.644Z,27.41
2022-08-09T18:54:52.425Z,27.38
2022-08-09T18:57:43.449Z,27.32
2022-08-09T19:00:30.744Z,27.28
2022-08-09T19:03:16.438Z,27.20
2022-08-09T19:06:04.835Z,27.16
2022-08-09T19:08:55.450Z,27.17
2022-08-09T19:11:50.024Z,27.12
2022-08-09T19:14:36.333Z,27.11
2022-08-09T19:17:22.389Z,27.13
2022-08-09T19:20:09.727Z,27.09
2022-08-09T19:22:55.888Z,27.03
2022-08-09T19:26:02.373Z,26.96
2022-08-09T19:28:48.790Z,26.83
2022-08-09T19:31:45.515Z,26.68
2022-08-09T19:34:37.954Z,26.46
2022-08-09T19:37:27.321Z,26.34
2022-08-09T19:40:19.226Z,26.30
2022-08-09T19:43:10.221Z,26.13
2022-08-09T19:46:02.215Z,26.03
2022-08-09T19:49:02.433Z,25.87
2022-08-09T19:51:57.178Z,25.73
2022-08-09T19:54:43.205Z,25.63
2022-08-09T19:57:29.275Z,25.55
2022-08-09T20:00:15.751Z,25.44
2022-08-09T20:04:27.869Z,25.42
2022-08-09T20:06:10.575Z,25.35
2022-08-09T20:09:44.991Z,25.27
2022-08-09T20:12:36.254Z,25.24
2022-08-09T20:16:36.656Z,25.20
2022-08-09T20:18:31.407Z,25.17
2022-08-09T20:21:17.543Z,25.17
2022-08-09T20:24:08.142Z,25.22
2022-08-09T20:26:56.286Z,25.23
2022-08-09T20:29:44.147Z,25.24
2022-08-09T20:32:45.493Z,25.20
2022-08-09T20:35:35.789Z,25.14
2022-08-09T20:38:33.990Z,25.10
2022-08-09T20:41:34.883Z,25.07
2022-08-09T20:44:26.874Z,25.05
2022-08-09T20:47:16.291Z,25.01
2022-08-09T20:50:47.495Z,24.96
2022-08-09T20:53:35.291Z,25.01
2022-08-09T20:56:26.212Z,25.06
2022-08-09T20:59:12.036Z,25.03
2022-08-09T21:02:02.726Z,25.02
2022-08-09T21:05:56.925Z,25.03
2022-08-09T21:08:00.224Z,25.01
2022-08-09T21:10:53.193Z,25.06
2022-08-09T21:13:58.044Z,25.02
2022-08-09T21:16:46.221Z,25.05
2022-08-09T21:20:18.592Z,25.07
2022-08-09T21:22:42.161Z,25.07
2022-08-09T21:25:56.364Z,25.07
2022-08-09T21:28:55.956Z,25.06
2022-08-09T21:31:48.579Z,25.08
2022-08-09T21:34:35.852Z,25.11
2022-08-09T21:37:23.169Z,25.13
2022-08-09T21:40:10.940Z,25.13
2022-08-09T21:42:58.835Z,25.13
2022-08-09T21:45:45.000Z,25.14
2022-08-09T21:48:31.081Z,25.14
2022-08-09T21:51:24.443Z,25.12
2022-08-09T21:54:24.310Z,25.10
2022-08-09T21:57:36.882Z,25.06
2022-08-09T22:00:32.642Z,25.04
2022-08-09T22:03:25.598Z,25.01
2022-08-09T22:06:13.194Z,25.01
2022-08-09T22:08:58.956Z,25.02
2022-08-09T22:12:06.516Z,25.03
2022-08-09T22:14:52.030Z,25.02
2022-08-09T22:17:38.394Z,25.04
2022-08-09T22:20:34.724Z,25.05
2022-08-09T22:23:20.447Z,25.05
2022-08-09T22:26:23.367Z,25.06
2022-08-09T22:29:16.933Z,25.07
2022-08-09T22:32:04.464Z,25.09
2022-08-09T22:35:02.695Z,25.10
2022-08-09T22:38:07.398Z,25.05
2022-08-09T22:40:57.398Z,25.06
2022-08-09T22:44:03.670Z,25.07
2022-08-09T22:48:13.476Z,25.05
2022-08-09T22:49:56.992Z,25.03
2022-08-09T22:52:43.565Z,25.04
2022-08-09T22:56:06.491Z,25.06
2022-08-09T22:58:36.427Z,25.03
2022-08-09T23:01:22.245Z,25.04
2022-08-09T23:04:08.418Z,24.98
2022-08-09T23:07:13.901Z,25.01
2022-08-09T23:10:00.351Z,25.01
2022-08-09T23:12:46.917Z,25.03
2022-08-09T23:15:32.816Z,25.03
2022-08-09T23:18:18.549Z,25.00
2022-08-09T23:21:04.786Z,25.00
2022-08-09T23:24:05.536Z,24.98
2022-08-09T23:26:52.998Z,24.98
2022-08-09T23:29:38.750Z,24.97
2022-08-09T23:32:24.654Z,24.98
2022-08-09T23:35:10.229Z,24.97
2022-08-09T23:37:56.129Z,24.95
2022-08-09T23:40:42.235Z,24.94
2022-08-09T23:43:28.206Z,24.97
2022-08-09T23:46:13.996Z,24.98
2022-08-09T23:49:00.424Z,24.97
2022-08-09T23:51:46.416Z,24.93
2022-08-09T23:54:32.206Z,24.90
2022-08-09T23:57:17.917Z,24.90
